Time;durP1;ratioP1;P1;durP2;ratioP2;P2;SDS_P1;SDS_P2;PMS_P1;PMS_P2;Temp;Humidity;BMP_temperature;BMP_pressure;BME280_temperature;BME280_humidity;BME280_pressure;Samples;Min_cycle;Max_cycle;Signal;HPM_P1;HPM_P2
2023/08/29 00:03:27;;;;;;;3.23;3.13;;;17.80;99.90;;;;;;10540973;28;20282;-78
2023/08/29 00:08:29;;;;;;;3.10;2.97;;;17.80;99.90;;;;;;10537824;28;20360;-77
2023/08/29 00:13:33;;;;;;;3.70;3.33;;;17.80;99.90;;;;;;10537619;28;20263;-77
2023/08/29 00:18:35;;;;;;;3.57;3.37;;;17.70;99.90;;;;;;10541043;28;20217;-77
2023/08/29 00:23:37;;;;;;;3.20;3.10;;;17.70;99.90;;;;;;10540013;28;20224;-78
2023/08/29 00:28:41;;;;;;;4.00;3.70;;;17.70;99.90;;;;;;10540497;28;20242;-77
2023/08/29 00:33:43;;;;;;;4.00;3.70;;;17.70;99.90;;;;;;10521149;28;20225;-77
2023/08/29 00:38:45;;;;;;;3.97;3.67;;;17.70;99.90;;;;;;10517123;28;20224;-77
2023/08/29 00:43:48;;;;;;;3.70;3.50;;;17.70;99.90;;;;;;10514542;28;20289;-77
2023/08/29 00:48:51;;;;;;;4.10;3.60;;;17.70;99.90;;;;;;10521471;28;20250;-77
2023/08/29 00:53:53;;;;;;;3.90;3.70;;;17.70;99.90;;;;;;10520632;28;20278;-77
2023/08/29 00:58:57;;;;;;;3.70;3.43;;;17.70;99.90;;;;;;10518206;28;20197;-77
2023/08/29 01:03:59;;;;;;;3.53;3.43;;;17.70;99.90;;;;;;10534069;28;20274;-77
2023/08/29 01:09:03;;;;;;;3.20;3.10;;;17.70;99.90;;;;;;10531540;28;20232;-77
2023/08/29 01:14:14;;;;;;;4.00;3.80;;;17.70;99.90;;;;;;10530498;28;20238;-77
2023/08/29 01:19:16;;;;;;;3.70;3.50;;;17.80;99.90;;;;;;10521558;28;20246;-77
2023/08/29 01:24:26;;;;;;;4.27;4.03;;;17.70;99.90;;;;;;10519725;28;20267;-77
2023/08/29 01:29:30;;;;;;;4.20;4.00;;;17.70;99.90;;;;;;10520642;28;20224;-77
2023/08/29 01:34:32;;;;;;;4.30;4.10;;;17.70;99.90;;;;;;10537082;28;20293;-77
2023/08/29 01:39:37;;;;;;;3.93;3.73;;;17.70;99.90;;;;;;10508345;28;20202;-77
2023/08/29 01:44:41;;;;;;;3.63;3.43;;;17.70;99.90;;;;;;10512976;28;20221;-78
2023/08/29 01:49:43;;;;;;;4.20;3.90;;;17.70;99.90;;;;;;10539903;28;20216;-77
2023/08/29 01:54:45;;;;;;;4.23;4.03;;;17.60;99.90;;;;;;10525805;28;20224;-77
2023/08/29 01:59:49;;;;;;;4.53;4.13;;;17.70;99.90;;;;;;10532211;28;20228;-77
2023/08/29 02:04:51;;;;;;;7.40;4.10;;;17.60;99.90;;;;;;10528339;28;20227;-77
2023/08/29 02:09:53;;;;;;;3.93;3.63;;;17.70;99.90;;;;;;10532408;28;20221;-77
2023/08/29 02:14:57;;;;;;;4.63;4.13;;;17.70;99.90;;;;;;10518111;28;20234;-77
2023/08/29 02:19:59;;;;;;;5.70;4.37;;;17.70;99.90;;;;;;10509488;28;20204;-77
2023/08/29 02:25:04;;;;;;;4.13;3.83;;;17.70;99.90;;;;;;10526636;28;20703;-77
2023/08/29 02:30:10;;;;;;;4.80;4.50;;;17.70;99.90;;;;;;10544352;28;20243;-77
2023/08/29 02:35:12;;;;;;;4.17;3.87;;;17.80;99.90;;;;;;10525267;28;20224;-77
2023/08/29 02:40:14;;;;;;;4.00;3.80;;;17.80;99.90;;;;;;10508476;28;20217;-78
2023/08/29 02:45:17;;;;;;;5.20;4.80;;;17.80;99.90;;;;;;10533284;28;20741;-77
2023/08/29 02:50:19;;;;;;;4.73;4.43;;;17.80;99.90;;;;;;10544264;28;20228;-76
2023/08/29 02:55:21;;;;;;;4.90;4.60;;;17.80;99.90;;;;;;10544648;28;20224;-77
2023/08/29 03:00:25;;;;;;;4.90;4.60;;;17.80;99.90;;;;;;10525507;28;20204;-77
2023/08/29 03:05:27;;;;;;;4.93;4.63;;;17.80;99.90;;;;;;10524816;28;20220;-78
2023/08/29 03:10:30;;;;;;;4.87;4.57;;;17.80;99.90;;;;;;10505109;28;20229;-78
2023/08/29 03:15:34;;;;;;;5.47;4.97;;;17.80;99.90;;;;;;10515112;28;20221;-77
2023/08/29 03:20:40;;;;;;;4.43;4.23;;;17.80;99.90;;;;;;10531494;28;20232;-77
2023/08/29 03:25:42;;;;;;;5.17;4.77;;;17.80;99.90;;;;;;10526943;28;20235;-77
2023/08/29 03:30:46;;;;;;;5.20;4.90;;;17.80;99.90;;;;;;10525745;28;20224;-77
2023/08/29 03:35:58;;;;;;;4.80;4.50;;;17.70;99.90;;;;;;10541582;28;20216;-77
2023/08/29 03:41:00;;;;;;;5.20;4.80;;;17.70;99.90;;;;;;10499679;28;20691;-77
2023/08/29 03:46:05;;;;;;;5.50;5.20;;;17.70;99.90;;;;;;10529344;28;20785;-77
2023/08/29 03:51:07;;;;;;;5.60;5.30;;;17.70;99.90;;;;;;10523287;28;20228;-77
2023/08/29 03:56:10;;;;;;;5.53;5.10;;;17.70;99.90;;;;;;10542773;28;20221;-77
2023/08/29 04:01:13;;;;;;;6.33;5.83;;;17.70;99.90;;;;;;10523297;28;20303;-77
2023/08/29 04:06:19;;;;;;;5.27;4.97;;;17.70;99.90;;;;;;10523084;28;20235;-78
2023/08/29 04:11:21;;;;;;;4.60;4.30;;;17.70;99.90;;;;;;10513045;28;20278;-77
2023/08/29 04:16:25;;;;;;;5.13;4.83;;;17.70;99.90;;;;;;10492240;28;20221;-77
2023/08/29 04:21:27;;;;;;;6.63;6.13;;;17.70;99.90;;;;;;10523518;28;20211;-77
2023/08/29 04:26:29;;;;;;;6.40;6.00;;;17.70;99.90;;;;;;10538786;28;20233;-77
2023/08/29 04:31:33;;;;;;;7.60;6.90;;;17.70;99.90;;;;;;10539941;28;20225;-77
2023/08/29 04:36:35;;;;;;;6.27;5.87;;;17.70;99.90;;;;;;10519955;28;20223;-77
2023/08/29 04:41:38;;;;;;;8.13;7.33;;;17.70;99.90;;;;;;10538341;28;20197;-77
2023/08/29 04:46:41;;;;;;;7.63;7.03;;;17.70;99.90;;;;;;10525429;28;20212;-78
2023/08/29 04:51:43;;;;;;;7.80;7.20;;;17.70;99.90;;;;;;10540312;28;20281;-77
2023/08/29 04:56:45;;;;;;;7.70;7.20;;;17.70;99.90;;;;;;10536428;28;20251;-78
2023/08/29 05:01:49;;;;;;;7.70;7.20;;;17.70;99.90;;;;;;10522119;28;20205;-78
2023/08/29 05:06:51;;;;;;;7.97;7.27;;;17.80;99.90;;;;;;10503805;28;20228;-78
2023/08/29 05:11:55;;;;;;;8.10;7.50;;;17.80;99.90;;;;;;10514221;28;20254;-78
2023/08/29 05:16:58;;;;;;;9.00;8.40;;;17.80;99.90;;;;;;10540961;28;20235;-77
2023/08/29 05:22:01;;;;;;;8.40;7.80;;;17.80;99.90;;;;;;10520363;28;20227;-78
2023/08/29 05:27:03;;;;;;;8.30;7.70;;;17.80;99.90;;;;;;10511851;22;20286;-77
2023/08/29 05:32:07;;;;;;;9.50;8.70;;;17.80;99.90;;;;;;10495300;28;20252;-77
2023/08/29 05:37:09;;;;;;;9.20;7.97;;;17.90;99.90;;;;;;10473591;28;20222;-77
2023/08/29 05:42:11;;;;;;;9.23;8.43;;;17.90;99.90;;;;;;10477098;28;20255;-77
2023/08/29 05:47:14;;;;;;;10.47;9.60;;;17.90;99.90;;;;;;10474665;28;20229;-76
2023/08/29 05:52:19;;;;;;;9.33;8.53;;;17.90;99.90;;;;;;10475627;28;20212;-78
2023/08/29 05:57:21;;;;;;;8.60;8.00;;;17.90;99.90;;;;;;10473994;28;20225;-76
2023/08/29 06:02:25;;;;;;;8.60;8.00;;;17.90;99.90;;;;;;10454337;28;20673;-77
2023/08/29 06:07:27;;;;;;;9.90;9.20;;;17.90;99.90;;;;;;10473875;28;20355;-78
2023/08/29 06:12:29;;;;;;;10.70;9.80;;;17.90;99.90;;;;;;10479438;28;20312;-77
2023/08/29 06:17:32;;;;;;;9.93;9.23;;;17.90;99.90;;;;;;10474240;28;20218;-77
2023/08/29 06:22:34;;;;;;;9.00;8.33;;;17.90;99.90;;;;;;10473557;28;20194;-77
2023/08/29 06:27:36;;;;;;;8.97;8.27;;;17.90;99.90;;;;;;10476100;28;20763;-77
2023/08/29 06:32:40;;;;;;;9.40;8.70;;;17.90;99.90;;;;;;10472902;28;20724;-77
2023/08/29 06:37:42;;;;;;;8.67;7.80;;;17.90;99.90;;;;;;10459231;28;20245;-77
2023/08/29 06:42:44;;;;;;;10.27;9.37;;;17.80;99.90;;;;;;10477286;28;20722;-78
2023/08/29 06:47:48;;;;;;;9.83;9.13;;;17.80;99.90;;;;;;10485613;28;20245;-77
2023/08/29 06:52:50;;;;;;;9.53;8.83;;;17.70;99.90;;;;;;10478457;28;20232;-76
2023/08/29 06:57:52;;;;;;;10.20;9.40;;;17.60;99.90;;;;;;10471534;28;20217;-77
2023/08/29 07:02:55;;;;;;;11.27;10.43;;;17.40;99.90;;;;;;10485970;28;20519;-76
2023/08/29 07:07:58;;;;;;;11.67;10.77;;;17.30;99.90;;;;;;10477670;28;20228;-78
2023/08/29 07:13:00;;;;;;;12.33;11.33;;;17.20;99.90;;;;;;10460011;28;20209;-76
2023/08/29 07:18:05;;;;;;;11.70;10.80;;;17.20;99.90;;;;;;10484899;28;20225;-76
2023/08/29 07:23:07;;;;;;;10.70;9.87;;;17.10;99.90;;;;;;10475163;28;20284;-77
2023/08/29 07:28:11;;;;;;;11.30;10.40;;;17.20;99.90;;;;;;10485869;28;20226;-77
2023/08/29 07:33:15;;;;;;;11.20;10.20;;;17.20;99.90;;;;;;10475613;28;20563;-76
2023/08/29 07:38:18;;;;;;;10.00;9.30;;;17.30;99.90;;;;;;10467756;28;20699;-77
2023/08/29 07:43:20;;;;;;;10.20;9.40;;;17.40;99.90;;;;;;10456559;28;20732;-78
2023/08/29 07:48:24;;;;;;;9.23;8.57;;;17.50;99.90;;;;;;10469109;28;20273;-78
2023/08/29 07:53:26;;;;;;;10.33;9.30;;;17.60;99.90;;;;;;10474370;28;20233;-77
2023/08/29 07:58:29;;;;;;;9.17;8.47;;;17.60;99.90;;;;;;10495902;28;20206;-77
2023/08/29 08:03:32;;;;;;;9.13;8.53;;;17.60;99.90;;;;;;10486215;28;20606;-77
2023/08/29 08:08:34;;;;;;;9.97;9.17;;;17.70;99.90;;;;;;10468889;28;20553;-77
2023/08/29 08:13:36;;;;;;;9.97;9.00;;;17.70;99.90;;;;;;10474534;28;20235;-77
2023/08/29 08:18:42;;;;;;;14.23;13.27;;;17.60;99.90;;;;;;10484955;28;20197;-77
2023/08/29 08:23:44;;;;;;;16.37;15.30;;;17.40;99.90;;;;;;10470805;28;20255;-77
2023/08/29 08:28:46;;;;;;;15.90;14.80;;;17.20;99.90;;;;;;10486922;28;20277;-77
2023/08/29 08:33:49;;;;;;;15.27;14.03;;;17.10;99.90;;;;;;10484561;28;20221;-77
2023/08/29 08:38:51;;;;;;;18.47;17.00;;;17.10;99.90;;;;;;10452691;28;20202;-78
2023/08/29 08:43:56;;;;;;;18.03;16.63;;;17.10;99.90;;;;;;10450049;28;20221;-77
2023/08/29 08:49:00;;;;;;;19.93;18.40;;;17.00;99.90;;;;;;10468091;28;20719;-77
2023/08/29 08:54:02;;;;;;;22.60;20.93;;;16.90;99.90;;;;;;10467275;28;20244;-77
2023/08/29 08:59:05;;;;;;;22.20;20.53;;;16.80;99.90;;;;;;10494625;28;20205;-76
2023/08/29 09:04:09;;;;;;;23.87;22.07;;;16.80;99.90;;;;;;10482539;28;20221;-77
2023/08/29 09:09:18;;;;;;;20.53;19.03;;;16.90;99.90;;;;;;10486867;28;20317;-76
2023/08/29 09:14:21;;;;;;;23.03;21.23;;;17.00;99.90;;;;;;10473897;28;20240;-77
2023/08/29 09:19:25;;;;;;;22.50;20.90;;;17.00;99.90;;;;;;10481327;28;20205;-77
2023/08/29 09:24:33;;;;;;;24.00;22.00;;;17.10;99.90;;;;;;10465955;28;20315;-76
2023/08/29 09:29:35;;;;;;;20.50;19.00;;;17.00;99.90;;;;;;10465869;28;20320;-77
2023/08/29 09:34:39;;;;;;;21.70;20.00;;;17.00;99.90;;;;;;10452826;28;20218;-77
2023/08/29 09:39:41;;;;;;;20.33;18.83;;;16.90;99.90;;;;;;10466589;28;20209;-76
2023/08/29 09:44:43;;;;;;;22.50;20.90;;;16.90;99.90;;;;;;10488820;28;20221;-76
2023/08/29 09:49:48;;;;;;;24.30;22.50;;;16.80;99.90;;;;;;10465492;28;20222;-76
2023/08/29 09:54:51;;;;;;;24.93;23.07;;;16.80;99.90;;;;;;10468600;28;20217;-76
2023/08/29 09:59:55;;;;;;;25.30;23.40;;;16.80;99.90;;;;;;10466678;28;20202;-77
2023/08/29 10:05:05;;;;;;;23.73;22.00;;;16.90;99.90;;;;;;10462629;28;20582;-77
2023/08/29 10:10:09;;;;;;;25.13;23.23;;;16.90;99.90;;;;;;10489753;28;20232;-77
2023/08/29 10:15:12;;;;;;;26.17;24.03;;;16.90;99.90;;;;;;10486123;28;20313;-78
2023/08/29 10:20:18;;;;;;;24.43;22.73;;;16.90;99.90;;;;;;10476671;28;20201;-77
2023/08/29 10:25:22;;;;;;;25.70;23.80;;;17.00;99.90;;;;;;10495658;28;20280;-77
2023/08/29 10:30:26;;;;;;;25.90;23.87;;;17.20;99.90;;;;;;10490426;28;20760;-77
2023/08/29 10:35:33;;;;;;;26.47;24.43;;;17.30;99.90;;;;;;10495092;28;20635;-76
2023/08/29 10:40:36;;;;;;;22.93;21.20;;;17.50;99.90;;;;;;10464522;28;20204;-77
2023/08/29 10:45:48;;;;;;;24.30;22.60;;;17.60;99.90;;;;;;10446545;28;20234;-76
2023/08/29 10:51:14;;;;;;;23.60;21.90;;;17.70;99.90;;;;;;10479555;28;20540;-77
2023/08/29 10:56:17;;;;;;;23.47;21.67;;;17.70;99.90;;;;;;10469941;28;20257;-76
2023/08/29 11:01:31;;;;;;;24.20;22.50;;;17.70;99.90;;;;;;10480349;28;20209;-77
2023/08/29 11:06:54;;;;;;;23.37;21.47;;;17.80;99.90;;;;;;10418640;28;20310;-77
2023/08/29 11:12:09;;;;;;;21.67;19.97;;;17.80;99.90;;;;;;10475109;28;20231;-76
2023/08/29 11:17:12;;;;;;;23.50;21.70;;;17.80;99.90;;;;;;10500068;28;20233;-77
2023/08/29 11:22:16;;;;;;;23.43;21.63;;;17.80;99.90;;;;;;10480249;28;20572;-77
2023/08/29 11:47:45;;;;;;;25.27;23.17;;;18.40;99.90;;;;;;10445797;28;20228;-81
2023/08/29 12:19:26;;;;;;;19.90;18.30;;;18.40;99.90;;;;;;10254444;28;20204;-81
2023/08/29 12:25:07;;;;;;;16.63;15.53;;;18.20;99.90;;;;;;10457984;28;20712;-81
2023/08/29 12:30:21;;;;;;;20.47;18.93;;;18.00;99.90;;;;;;10460625;28;20217;-81
2023/08/29 12:35:30;;;;;;;20.00;18.60;;;17.90;99.90;;;;;;10462046;28;20226;-81
2023/08/29 12:41:04;;;;;;;21.20;19.60;;;17.80;99.90;;;;;;10459655;28;20213;-81
2023/08/29 12:46:21;;;;;;;23.53;21.73;;;17.70;99.90;;;;;;10496191;28;20252;-81
2023/08/29 12:51:46;;;;;;;27.57;25.47;;;17.70;99.90;;;;;;10461656;28;20293;-82
2023/08/29 12:57:05;;;;;;;22.47;20.87;;;17.60;99.90;;;;;;10422814;28;20214;-82
2023/08/29 13:02:47;;;;;;;24.17;22.27;;;17.60;99.90;;;;;;10462998;28;20194;-82
2023/08/29 13:15:23;;;;;;;24.40;22.60;;;17.60;99.90;;;;;;10431418;28;21500;-82
2023/08/29 13:53:13;;;;;;;;;;;;;;;;;;;;;
2023/08/29 14:05:33;;;;;;;17.37;16.13;;;18.80;99.90;;;;;;10445493;28;20592;-81
2023/08/29 14:11:29;;;;;;;14.80;13.90;;;18.90;99.90;;;;;;10328210;28;20286;-81
2023/08/29 14:30:53;;;;;;;13.23;12.30;;;19.30;99.90;;;;;;10321962;28;20309;-81
2023/08/29 14:37:11;;;;;;;13.57;12.67;;;19.30;99.90;;;;;;10427567;28;20612;-81
2023/08/29 14:43:09;;;;;;;12.77;11.83;;;19.30;99.90;;;;;;10450036;28;20237;-81
2023/08/29 14:49:53;;;;;;;;;;;;;;;;;;;;;
2023/08/29 14:56:36;;;;;;;11.40;10.70;;;19.40;99.90;;;;;;10454742;28;20776;-81
2023/08/29 15:03:12;;;;;;;9.63;9.03;;;19.50;99.90;;;;;;10454275;28;20194;-81
2023/08/29 15:08:30;;;;;;;6.70;6.10;;;19.50;99.90;;;;;;10427933;28;20475;-81
2023/08/29 15:13:32;;;;;;;7.70;6.93;;;19.50;99.90;;;;;;10468319;28;20519;-81
2023/08/29 15:18:37;;;;;;;6.73;6.33;;;19.50;99.90;;;;;;10476716;28;20237;-81
2023/08/29 15:23:40;;;;;;;5.10;4.80;;;19.50;99.90;;;;;;10472761;28;20206;-81
2023/08/29 15:28:43;;;;;;;5.03;4.77;;;19.50;99.90;;;;;;10453626;28;20233;-81
2023/08/29 15:33:47;;;;;;;5.37;5.17;;;19.50;99.90;;;;;;10474997;28;20226;-80
2023/08/29 15:38:50;;;;;;;5.30;5.00;;;19.40;99.90;;;;;;10478436;28;20779;-81
2023/08/29 15:43:54;;;;;;;6.03;5.73;;;19.40;99.90;;;;;;10476164;28;20681;-80
2023/08/29 15:49:00;;;;;;;5.77;5.47;;;19.30;99.90;;;;;;10483605;28;20228;-80
2023/08/29 15:54:02;;;;;;;6.10;5.70;;;19.30;99.90;;;;;;10494149;28;20221;-80
2023/08/29 15:59:06;;;;;;;5.50;5.20;;;19.20;99.90;;;;;;10470815;28;20254;-80
2023/08/29 16:04:10;;;;;;;5.50;5.20;;;19.20;99.90;;;;;;10468020;28;20700;-81
2023/08/29 16:09:13;;;;;;;5.60;5.20;;;19.20;99.90;;;;;;10444753;28;20206;-80
2023/08/29 16:14:16;;;;;;;5.43;5.13;;;19.10;99.90;;;;;;10472685;28;20245;-80
2023/08/29 16:19:20;;;;;;;5.40;5.10;;;19.10;99.90;;;;;;10488929;28;20213;-80
2023/08/29 16:24:22;;;;;;;5.83;5.33;;;19.10;99.90;;;;;;10455873;28;20332;-80
2023/08/29 16:29:25;;;;;;;5.80;5.50;;;19.10;99.90;;;;;;10461567;28;20206;-80
2023/08/29 16:34:28;;;;;;;5.20;4.77;;;19.00;99.90;;;;;;10456795;28;20594;-81
2023/08/29 16:39:31;;;;;;;4.73;4.40;;;19.00;99.90;;;;;;10445427;28;20205;-80
2023/08/29 16:44:34;;;;;;;6.30;5.90;;;18.90;99.90;;;;;;10453023;28;20716;-80
2023/08/29 16:49:37;;;;;;;5.60;5.10;;;18.90;99.90;;;;;;10455727;28;20212;-80
2023/08/29 16:54:40;;;;;;;7.73;7.10;;;18.80;99.90;;;;;;10487091;28;20606;-80
2023/08/29 16:59:57;;;;;;;5.67;5.17;;;18.80;99.90;;;;;;10458291;28;20275;-80
2023/08/29 17:05:03;;;;;;;5.73;5.40;;;18.80;99.90;;;;;;10453929;28;20248;-80
2023/08/29 17:10:06;;;;;;;3.80;3.60;;;18.80;99.90;;;;;;10456460;28;20209;-80
2023/08/29 17:15:09;;;;;;;4.40;4.20;;;18.80;99.90;;;;;;10452660;28;20217;-80
2023/08/29 17:20:13;;;;;;;4.83;4.63;;;18.70;99.90;;;;;;10453320;28;20213;-80
2023/08/29 17:25:15;;;;;;;4.50;4.30;;;18.60;99.90;;;;;;10458642;28;20619;-80
2023/08/29 17:30:19;;;;;;;4.57;4.27;;;18.50;99.90;;;;;;10459152;28;20214;-80
2023/08/29 17:35:23;;;;;;;5.10;4.80;;;18.40;99.90;;;;;;10456313;28;20237;-79
2023/08/29 17:40:25;;;;;;;5.50;5.20;;;18.40;99.90;;;;;;10453528;28;20287;-80
2023/08/29 17:45:27;;;;;;;5.10;4.90;;;18.30;99.90;;;;;;10464674;28;20279;-80
2023/08/29 17:50:30;;;;;;;5.00;4.70;;;18.10;99.90;;;;;;10448584;28;20682;-79
2023/08/29 17:55:35;;;;;;;5.60;5.23;;;18.00;99.90;;;;;;10452118;28;20656;-80
2023/08/29 18:00:37;;;;;;;5.70;5.40;;;17.90;99.90;;;;;;10453152;28;20205;-79
2023/08/29 18:05:52;;;;;;;5.13;4.80;;;17.90;99.90;;;;;;10447419;28;20226;-79
2023/08/29 18:10:55;;;;;;;6.67;6.27;;;17.80;99.90;;;;;;10448549;28;20675;-79
2023/08/29 18:15:58;;;;;;;6.93;5.87;;;17.70;99.90;;;;;;10452880;28;20229;-79
2023/08/29 18:21:02;;;;;;;7.07;6.67;;;17.70;99.90;;;;;;10448695;28;20190;-79
2023/08/29 18:26:05;;;;;;;11.33;9.50;;;17.60;99.90;;;;;;10448791;28;20735;-79
2023/08/29 18:31:08;;;;;;;10.87;10.20;;;17.50;99.90;;;;;;10450443;28;20676;-79
2023/08/29 18:36:11;;;;;;;12.70;11.87;;;17.40;99.90;;;;;;10449209;28;20226;-80
2023/08/29 18:41:13;;;;;;;13.93;12.90;;;17.40;99.90;;;;;;10455548;28;20280;-79
2023/08/29 18:46:16;;;;;;;15.93;14.90;;;17.30;99.90;;;;;;10457650;28;20256;-79
2023/08/29 18:51:19;;;;;;;16.30;14.90;;;17.20;99.90;;;;;;10452321;28;20317;-79
2023/08/29 18:56:21;;;;;;;13.70;12.90;;;17.10;99.90;;;;;;10453943;28;20226;-79
2023/08/29 19:01:23;;;;;;;14.27;13.27;;;17.10;99.90;;;;;;10455062;28;20213;-80
2023/08/29 19:06:27;;;;;;;15.37;14.27;;;17.10;99.90;;;;;;10453021;28;20884;-81
2023/08/29 19:11:29;;;;;;;15.87;14.87;;;17.10;99.90;;;;;;10449834;28;20217;-81
2023/08/29 19:16:32;;;;;;;15.70;14.70;;;17.00;99.90;;;;;;10452266;28;20233;-79
2023/08/29 19:21:35;;;;;;;15.33;14.33;;;17.00;99.90;;;;;;10455354;28;20193;-80
2023/08/29 19:26:38;;;;;;;16.47;15.17;;;17.00;99.90;;;;;;10464133;28;20241;-80
2023/08/29 19:31:40;;;;;;;15.67;14.67;;;17.00;99.90;;;;;;10472167;28;20228;-79
2023/08/29 19:36:44;;;;;;;14.40;13.70;;;17.00;99.90;;;;;;10478145;28;20248;-79
2023/08/29 19:41:46;;;;;;;15.23;14.37;;;16.90;99.90;;;;;;10478199;28;20206;-78
2023/08/29 19:46:48;;;;;;;15.10;14.30;;;16.70;99.90;;;;;;10477639;28;20264;-79
2023/08/29 19:51:52;;;;;;;15.43;14.53;;;16.70;99.90;;;;;;10477472;28;20226;-78
2023/08/29 19:56:54;;;;;;;16.00;15.10;;;16.60;99.90;;;;;;10479376;28;20233;-79
2023/08/29 20:01:56;;;;;;;16.17;15.27;;;16.60;99.90;;;;;;10471005;28;20272;-79
2023/08/29 20:07:11;;;;;;;17.00;15.80;;;16.50;99.90;;;;;;10467261;28;20222;-79
2023/08/29 20:12:14;;;;;;;16.57;15.57;;;16.50;99.90;;;;;;10458586;28;20222;-80
2023/08/29 20:17:16;;;;;;;22.63;21.00;;;16.50;99.90;;;;;;10460095;28;20213;-79
2023/08/29 20:22:19;;;;;;;19.27;17.97;;;16.40;99.90;;;;;;10459277;28;20657;-80
2023/08/29 20:27:21;;;;;;;21.30;19.27;;;16.40;99.90;;;;;;10459997;28;20233;-79
2023/08/29 20:32:25;;;;;;;21.50;20.10;;;16.40;99.90;;;;;;10460253;28;20221;-79
2023/08/29 20:37:30;;;;;;;22.70;21.10;;;16.40;99.90;;;;;;10458914;28;20236;-79
2023/08/29 20:42:33;;;;;;;25.07;23.20;;;16.40;99.90;;;;;;10459292;28;20571;-79
2023/08/29 20:47:37;;;;;;;23.03;21.27;;;16.40;99.90;;;;;;10459252;28;20719;-79
2023/08/29 20:52:40;;;;;;;25.70;23.90;;;16.40;99.90;;;;;;10453489;28;20225;-79
2023/08/29 20:57:43;;;;;;;25.80;23.80;;;16.50;99.90;;;;;;10449011;28;20226;-79
2023/08/29 21:02:45;;;;;;;25.57;23.57;;;16.60;99.90;;;;;;10453624;28;20288;-79
2023/08/29 21:07:48;;;;;;;25.60;23.40;;;16.60;99.90;;;;;;10449330;28;20222;-79
2023/08/29 21:12:51;;;;;;;24.30;22.40;;;16.60;99.90;;;;;;10456977;28;20230;-79
2023/08/29 21:17:53;;;;;;;22.10;20.50;;;16.60;99.90;;;;;;10457650;28;20329;-80
2023/08/29 21:22:56;;;;;;;22.57;20.93;;;16.60;99.90;;;;;;10458432;28;20205;-78
2023/08/29 21:27:58;;;;;;;23.30;21.50;;;16.60;99.90;;;;;;10454751;28;20233;-79
2023/08/29 21:33:00;;;;;;;21.77;20.17;;;16.60;99.90;;;;;;10464336;28;20271;-78
2023/08/29 21:38:04;;;;;;;20.97;19.37;;;16.60;99.90;;;;;;10457491;28;20218;-79
2023/08/29 21:43:07;;;;;;;21.50;19.83;;;16.60;99.90;;;;;;10457769;28;20206;-79
2023/08/29 21:48:10;;;;;;;22.03;20.23;;;16.60;99.90;;;;;;10456143;28;20214;-80
2023/08/29 21:53:14;;;;;;;19.47;18.07;;;16.70;99.90;;;;;;10456198;28;20221;-79
2023/08/29 21:58:18;;;;;;;18.37;17.17;;;16.70;99.90;;;;;;10457317;28;20268;-79
2023/08/29 22:03:21;;;;;;;18.00;16.60;;;16.70;99.90;;;;;;10456254;28;20216;-78
2023/08/29 22:08:25;;;;;;;17.10;16.00;;;16.60;99.90;;;;;;10453379;28;20237;-80
2023/08/29 22:13:27;;;;;;;19.17;17.77;;;16.60;99.90;;;;;;10461814;28;20752;-79
2023/08/29 22:18:29;;;;;;;17.63;16.43;;;16.60;99.90;;;;;;10464168;28;20642;-80
2023/08/29 22:23:33;;;;;;;18.07;16.53;;;16.50;99.90;;;;;;10458449;28;20198;-79
2023/08/29 22:28:35;;;;;;;17.20;16.07;;;16.50;99.90;;;;;;10465223;28;20320;-78
2023/08/29 22:33:37;;;;;;;18.53;17.07;;;16.50;99.90;;;;;;10464454;28;20240;-79
2023/08/29 22:38:41;;;;;;;18.00;16.80;;;16.50;99.90;;;;;;10462992;28;20222;-79
2023/08/29 22:43:43;;;;;;;16.37;15.17;;;16.50;99.90;;;;;;10457842;28;20205;-79
2023/08/29 22:48:45;;;;;;;16.30;15.00;;;16.40;99.90;;;;;;10460765;28;20237;-79
2023/08/29 22:53:49;;;;;;;17.67;16.37;;;16.40;99.90;;;;;;10459364;28;20264;-79
2023/08/29 22:58:51;;;;;;;15.87;14.83;;;16.30;99.90;;;;;;10463962;28;20264;-78
2023/08/29 23:03:53;;;;;;;16.27;15.20;;;16.30;99.90;;;;;;10444487;28;20202;-79
2023/08/29 23:08:57;;;;;;;16.23;14.93;;;16.20;99.90;;;;;;10463154;28;20226;-79
2023/08/29 23:14:02;;;;;;;15.83;14.43;;;16.30;99.90;;;;;;10462174;28;20214;-78
2023/08/29 23:19:05;;;;;;;16.30;15.20;;;16.30;99.90;;;;;;10462784;28;20290;-79
2023/08/29 23:24:09;;;;;;;16.33;15.23;;;16.30;99.90;;;;;;10459734;28;20198;-78
2023/08/29 23:29:11;;;;;;;15.53;14.47;;;16.30;99.90;;;;;;10521696;22;20764;-76
2023/08/29 23:34:13;;;;;;;15.90;14.80;;;16.30;99.90;;;;;;10483950;28;20245;-77
2023/08/29 23:39:17;;;;;;;15.47;14.40;;;16.30;99.90;;;;;;10480442;28;20236;-77
2023/08/29 23:44:19;;;;;;;14.70;13.47;;;16.30;99.90;;;;;;10474010;28;20700;-78
2023/08/29 23:49:21;;;;;;;14.87;13.70;;;16.40;99.90;;;;;;10462476;28;20754;-77
2023/08/29 23:54:24;;;;;;;15.03;13.97;;;16.30;99.90;;;;;;10461805;28;20304;-78
2023/08/29 23:59:29;;;;;;;14.17;13.03;;;16.30;99.90;;;;;;10479955;28;20225;-77
